Anglian Lady — VOLP — position and weather

sailwx.info

Track history (hours):
 
Tides and Currents Weather Stations Pressure Air Temp Water Temp Dewpoint Dewpoint Depression Visibility Wind Speed Wind Dir Waves Ship Positions

Anglian Lady

Last reported at 2017-Sep-16 16:46 UTC. Time now 2017-Sep-19 18:42 UTC.
Position N 45°18' W 085°40'.

Length 32 m.

Type: Tug. MMSI: 316002238.

Date/timePositionNaut miles runAvg speedWind from/ knotsBaromVisibWave heightAir tempDewpointWater temp
2017-Sep-16 16:46N 45°18' W 085°40'2 6.2
2017-Sep-16 16:30N 45°20' W 085°38'3 6.2
2017-Sep-16 16:00N 45°22' W 085°35'3 6.0
2017-Sep-16 15:28N 45°25' W 085°33'3 5.8
2017-Sep-16 15:00N 45°27' W 085°30'3 5.7
2017-Sep-16 14:30N 45°29' W 085°28'3 5.8
2017-Sep-16 14:00N 45°32' W 085°26'3 5.9
2017-Sep-16 13:30N 45°34' W 085°23'2 4.1
2017-Sep-16 13:00N 45°36' W 085°22'2 4.1
2017-Sep-16 12:30N 45°38' W 085°20'3 6.3
2017-Sep-16 12:00N 45°40' W 085°17'3 6.2
2017-Sep-16 11:30N 45°43' W 085°15'3 6.2
2017-Sep-16 11:00N 45°45' W 085°12'3 5.4
2017-Sep-16 10:30N 45°47' W 085°09'3 5.8
2017-Sep-16 09:58N 45°50' W 085°08'3 6.3
2017-Sep-16 09:30N 45°50' W 085°04'3 6.5
2017-Sep-16 09:00N 45°50' W 084°60'3 6.6
2017-Sep-16 08:30N 45°50' W 084°55'3 6.6
2017-Sep-16 08:00N 45°49' W 084°50'3 6.7
2017-Sep-16 07:30N 45°49' W 084°45'3 6.5
2017-Sep-16 07:00N 45°49' W 084°41'3 6.4
2017-Sep-16 06:30N 45°51' W 084°37'3 6.3
2017-Sep-16 06:00N 45°52' W 084°32'3 6.6
2017-Sep-16 05:30N 45°52' W 084°28'3 6.7
2017-Sep-16 05:00N 45°53' W 084°23'3 6.6
2017-Sep-16 04:30N 45°53' W 084°18'3 6.6
2017-Sep-16 04:00N 45°53' W 084°13'3 6.7
2017-Sep-16 03:30N 45°54' W 084°09'3 6.9
2017-Sep-16 03:00N 45°55' W 084°04'4 7.0
2017-Sep-16 02:30N 45°56' W 083°59'3 7.0
2017-Sep-16 02:00N 45°57' W 083°54'3 6.8
2017-Sep-16 01:30N 45°60' W 083°53'35 2.3
2017-Sep-15 10:22N 46°30' W 084°20'0 0.0
2017-Sep-15 09:54N 46°30' W 084°20'0 0.0
2017-Sep-15 04:56N 46°30' W 084°20'0 0.0
2017-Sep-15 04:26N 46°30' W 084°20'0 0.0
2017-Sep-15 03:57N 46°30' W 084°20'0 0.0
2017-Sep-15 03:29N 46°30' W 084°20'0 0.0
2017-Sep-15 02:58N 46°30' W 084°20'0 0.0
2017-Sep-14 14:32N 46°30' W 084°20'0 0.0
2017-Sep-14 14:25N 46°30' W 084°20'0 0.0
2017-Sep-13 14:36N 46°30' W 084°20'0 0.0
2017-Sep-13 14:30N 46°30' W 084°20'0 0.0
2017-Sep-13 10:08N 46°30' W 084°20'0 0.0
2017-Sep-13 09:40N 46°30' W 084°20'0 0.0
2017-Sep-13 09:23N 46°30' W 084°20'0 0.0
2017-Sep-13 08:57N 46°30' W 084°20'0 0.0
2017-Sep-13 08:26N 46°30' W 084°20'0 0.0
2017-Sep-13 07:58N 46°30' W 084°20'0 0.0
2017-Sep-13 07:20N 46°30' W 084°20'0 0.0
2017-Sep-13 06:46N 46°30' W 084°20'0 0.0
2017-Sep-13 06:26N 46°30' W 084°20'0 0.0
2017-Sep-13 05:58N 46°30' W 084°20'0 0.0
2017-Sep-13 05:16N 46°30' W 084°20'0 0.0
2017-Sep-13 05:00N 46°30' W 084°20'0 0.0
2017-Sep-13 02:26N 46°30' W 084°20'0 0.0
2017-Sep-13 01:56N 46°30' W 084°20'0 0.0
2017-Sep-13 01:27N 46°30' W 084°20'  
Track history (hours):
 
Tides and Currents Weather Stations Pressure Air Temp Water Temp Dewpoint Dewpoint Depression Visibility Wind Speed Wind Dir Waves Ship Positions

Anglian Lady

Last reported at 2017-Sep-16 16:46 UTC. Time now 2017-Sep-19 18:42 UTC.
Position N 45°18' W 085°40'.

Length 32 m.

Type: Tug. MMSI: 316002238.

Date/timePositionNaut miles runAvg speedWind from/ knotsBaromVisibWave heightAir tempDewpointWater temp
2017-Sep-16 16:46N 45°18' W 085°40'2 6.2
2017-Sep-16 16:30N 45°20' W 085°38'3 6.2
2017-Sep-16 16:00N 45°22' W 085°35'3 6.0
2017-Sep-16 15:28N 45°25' W 085°33'3 5.8
2017-Sep-16 15:00N 45°27' W 085°30'3 5.7
2017-Sep-16 14:30N 45°29' W 085°28'3 5.8
2017-Sep-16 14:00N 45°32' W 085°26'3 5.9
2017-Sep-16 13:30N 45°34' W 085°23'2 4.1
2017-Sep-16 13:00N 45°36' W 085°22'2 4.1
2017-Sep-16 12:30N 45°38' W 085°20'3 6.3
2017-Sep-16 12:00N 45°40' W 085°17'3 6.2
2017-Sep-16 11:30N 45°43' W 085°15'3 6.2
2017-Sep-16 11:00N 45°45' W 085°12'3 5.4
2017-Sep-16 10:30N 45°47' W 085°09'3 5.8
2017-Sep-16 09:58N 45°50' W 085°08'3 6.3
2017-Sep-16 09:30N 45°50' W 085°04'3 6.5
2017-Sep-16 09:00N 45°50' W 084°60'3 6.6
2017-Sep-16 08:30N 45°50' W 084°55'3 6.6
2017-Sep-16 08:00N 45°49' W 084°50'3 6.7
2017-Sep-16 07:30N 45°49' W 084°45'3 6.5
2017-Sep-16 07:00N 45°49' W 084°41'3 6.4
2017-Sep-16 06:30N 45°51' W 084°37'3 6.3
2017-Sep-16 06:00N 45°52' W 084°32'3 6.6
2017-Sep-16 05:30N 45°52' W 084°28'3 6.7
2017-Sep-16 05:00N 45°53' W 084°23'3 6.6
2017-Sep-16 04:30N 45°53' W 084°18'3 6.6
2017-Sep-16 04:00N 45°53' W 084°13'3 6.7
2017-Sep-16 03:30N 45°54' W 084°09'3 6.9
2017-Sep-16 03:00N 45°55' W 084°04'4 7.0
2017-Sep-16 02:30N 45°56' W 083°59'3 7.0
2017-Sep-16 02:00N 45°57' W 083°54'3 6.8
2017-Sep-16 01:30N 45°60' W 083°53'35 2.3
2017-Sep-15 10:22N 46°30' W 084°20'0 0.0
2017-Sep-15 09:54N 46°30' W 084°20'0 0.0
2017-Sep-15 04:56N 46°30' W 084°20'0 0.0
2017-Sep-15 04:26N 46°30' W 084°20'0 0.0
2017-Sep-15 03:57N 46°30' W 084°20'0 0.0
2017-Sep-15 03:29N 46°30' W 084°20'0 0.0
2017-Sep-15 02:58N 46°30' W 084°20'0 0.0
2017-Sep-14 14:32N 46°30' W 084°20'0 0.0
2017-Sep-14 14:25N 46°30' W 084°20'0 0.0
2017-Sep-13 14:36N 46°30' W 084°20'0 0.0
2017-Sep-13 14:30N 46°30' W 084°20'0 0.0
2017-Sep-13 10:08N 46°30' W 084°20'0 0.0
2017-Sep-13 09:40N 46°30' W 084°20'0 0.0
2017-Sep-13 09:23N 46°30' W 084°20'0 0.0
2017-Sep-13 08:57N 46°30' W 084°20'0 0.0
2017-Sep-13 08:26N 46°30' W 084°20'0 0.0
2017-Sep-13 07:58N 46°30' W 084°20'0 0.0
2017-Sep-13 07:20N 46°30' W 084°20'0 0.0
2017-Sep-13 06:46N 46°30' W 084°20'0 0.0
2017-Sep-13 06:26N 46°30' W 084°20'0 0.0
2017-Sep-13 05:58N 46°30' W 084°20'0 0.0
2017-Sep-13 05:16N 46°30' W 084°20'0 0.0
2017-Sep-13 05:00N 46°30' W 084°20'0 0.0
2017-Sep-13 02:26N 46°30' W 084°20'0 0.0
2017-Sep-13 01:56N 46°30' W 084°20'0 0.0
2017-Sep-13 01:27N 46°30' W 084°20'  

Dump ship's entire track history